Philadelphia, PA

3:22 PM EST on December 08, 2016 (GMT -0500)
Weather Genius @ Old Wyndmoor | | Change Station

Elev 433 ft 40.08 °N, 75.19 °W | Updated 25 days ago

Mostly Cloudy
Mostly Cloudy
39.6 °F
Feels Like 40 °F
N
0.9
Wind Variable Wind from SE
Gusts 1.0 mph

Today
High -- | Low -- °F
--% Chance of Precip.
Yesterday
High -- | Low -- °F
Precip. -- in
Pressure 29.93 in
Visibility 10.0 miles
Clouds Clear
Windchill 40 °F
Dew Point 29 °F
Humidity 66%
Rainfall 0.00 in
Snow Depth Not available.
7:10 AM 4:35 PM
Waxing Gibbous, 66% visible
METAR KLOM 082015Z AUTO 31008G14KT 10SM CLR 05/M07 A2993 RMK AO1
Pressure 29.93 in
Visibility 10.0 miles
Clouds Clear
Windchill 40 °F
Dew Point 29 °F
Humidity 66%
Rainfall 0.00 in
Snow Depth Not available.
7:10 AM 4:35 PM
Waxing Gibbous, 66% visible
METAR KLOM 082015Z AUTO 31008G14KT 10SM CLR 05/M07 A2993 RMK AO1

10-Day Weather Forecast

Almanac

Astronomy

Dec. 08, 2016 Rise Set
Actual Time
Civil Twilight
Nautical Twilight
Astronomical Twilight
Moon
Length of Visible Light
Length of Day
Tomorrow will be .
, % of the Moon is Illuminated

Today's Extremes

State Highs State Lows

Community

WunderPhotos

Upload Photos

1,956,277 photos uploaded!

WunderBlog® & News

Nearby

Air Quality

  Air Quality AQ Index Pollutant
Not available.

Snow Depth

Station Depth Elevation

Earthquake Activity

City Distance Mag. Time & Date
Minimum magnitude displayed is 2.5.

Coastal Water Temperatures

Place Temperature

Stations

Nearby Weather Stations

Station Location Temp. Windchill Dew Point Humidity Wind Precip. Elev Updated Type
                   

Watches & Warnings

There are currently no watches in effect.